Flight Track Log - Related Links

Times and Time Zones

All times are in EDT time to prevent confusion due to time zone crossing. See the AWE997 flight status page for this flight to view local times or setup timezone preferences in your user account.


Time Position Orientation Groundspeed Altitude Reporting Facility
EDT Latitude Longitude Course Direction KTS MPH feet Rate Location/Type
Sat 11:14:47 AM 42.0000 -87.9333 90° East 171 197 1,600  Level Chicago TRACON
Sat 11:15:47 AM 42.0500 -87.8833 37° Northeast 260 299 3,200 2,050 Climbing Chicago TRACON
Sat 11:16:47 AM 42.0667 -87.7833 77° East 297 342 5,700 2,416 Climbing Chicago TRACON
Sat 11:17:00 AM 41.9525 -87.3945 97° East  Level FlightAware Approximate
Sat 11:18:00 AM 41.9400 -87.2265 95° East  Level FlightAware Approximate
Sat 11:18:21 AM 42.0772 -87.6194 85° East 312 359 9,400  Level Chicago Center
Sat 11:19:00 AM 41.9333 -87.0581 90° East  Level FlightAware Approximate
Sat 11:19:23 AM 42.0483 -87.5011 108° East 332 382 11,800  Level Chicago Center
Sat 11:20:00 AM 41.9333 -86.9009 90° East  Level FlightAware Approximate
Sat 11:20:24 AM 42.0197 -87.3786 107° East 339 390 13,800  Level Chicago Center
Sat 11:21:26 AM 41.9806 -87.2111 107° East 384 442 16,000 2,032 Climbing Chicago Center
Sat 11:22:28 AM 41.9481 -87.0692 107° East 398 458 18,000 1,258 Climbing Chicago Center
Sat 11:23:30 AM 41.9486 -86.9053 90° East 440 506 18,600 581 Climbing Chicago Center
Sat 11:24:32 AM 41.9511 -86.7236 89° East 474 545 19,200 927 Climbing Chicago Center
Sat 11:25:33 AM 41.9528 -86.5308 89° East 505 581 20,500 1,220 Climbing Chicago Center
Sat 11:26:35 AM 41.9542 -86.3394 89° East 511 588 21,700 1,016 Climbing Chicago Center
Sat 11:27:37 AM 41.9497 -86.1464 92° East 516 594 22,600 927 Climbing Chicago Center
Sat 11:28:38 AM 41.9308 -85.9508 97° East 526 605 23,600 1,171 Climbing Chicago Center
Sat 11:29:40 AM 41.9086 -85.7181 97° East 522 601 25,000 1,113 Climbing Chicago Center
Sat 11:30:42 AM 41.8892 -85.5183 97° East 532 612 25,900 726 Climbing Chicago Center
Sat 11:31:44 AM 41.8547 -85.3206 103° East 537 618 26,500 871 Climbing Chicago Center
Sat 11:32:46 AM 41.8206 -85.1114 102° East 541 623 27,700 1,328 Climbing Cleveland Center
Sat 11:33:46 AM 41.7861 -84.9225 104° East 535 616 29,200 1,200 Climbing Cleveland Center
Sat 11:34:46 AM 41.7514 -84.7333 104° East 530 610 30,100 950 Climbing Cleveland Center
Sat 11:35:46 AM 41.7164 -84.5419 104° East 525 604 31,100 1,000 Climbing Cleveland Center
Sat 11:36:46 AM 41.6767 -84.3589 106° East 520 598 32,100 950 Climbing Cleveland Center
Sat 11:37:46 AM 41.6361 -84.1953 108° East 520 598 33,000 800 Climbing Cleveland Center
Sat 11:38:46 AM 41.5981 -84.0125 106° East 515 593 33,700 700 Climbing Cleveland Center
Sat 11:39:46 AM 41.5553 -83.8300 107° East 515 593 34,400 650 Climbing Cleveland Center
Sat 11:40:46 AM 41.5125 -83.6475 107° East 515 593 35,000 300 Climbing Cleveland Center
Sat 11:41:46 AM 41.4697 -83.4458 106° East 511 588 35,000  Level Cleveland Center
Sat 11:42:46 AM 41.4303 -83.2697 107° East 511 588 35,000  Level Cleveland Center
Sat 11:43:46 AM 41.3906 -83.0908 106° East 501 577 35,000  Level Cleveland Center
Sat 11:44:46 AM 41.3542 -82.9344 107° East 501 577 35,000  Level Cleveland Center
Sat 11:45:46 AM 41.3139 -82.7617 107° East 501 577 35,000  Level Cleveland Center
Sat 11:46:46 AM 41.2733 -82.5861 107° East 495 570 35,000  Level Cleveland Center
Sat 11:47:46 AM 41.2303 -82.4108 108° East 500 575 35,000  Level Cleveland Center
Sat 11:48:46 AM 41.1892 -82.2331 107° East 500 575 35,000  Level Cleveland Center
Sat 11:49:46 AM 41.1478 -82.0583 107° East 500 575 35,000  Level Cleveland Center
Sat 11:50:46 AM 41.1042 -81.8811 108° East 500 575 35,000  Level Cleveland Center
Sat 11:51:46 AM 41.0622 -81.7067 108° East 500 575 35,000  Level Cleveland Center
Sat 11:52:46 AM 41.0181 -81.5297 108° East 500 575 35,000  Level Cleveland Center
Sat 11:53:46 AM 40.9756 -81.3558 108° East 500 575 35,000  Level Cleveland Center
Sat 11:54:46 AM 40.9308 -81.1767 108° East 506 582 35,000  Level Cleveland Center
Sat 11:55:46 AM 40.8919 -81.0061 107° East 496 571 35,000  Level Cleveland Center
Sat 11:56:46 AM 40.8486 -80.8328 108° East 496 571 35,000  Level Cleveland Center
Sat 11:57:46 AM 40.7967 -80.6433 110° East 501 577 35,000  Level Cleveland Center
Sat 11:58:46 AM 40.7508 -80.4708 109° East 501 577 35,000  Level Cleveland Center
Sat 12:00:46 PM 40.6689 -80.1506 109° East 489 563 35,000  Level Cleveland Center
Sat 12:01:46 PM 40.6219 -79.9622 108° East 484 557 35,000  Level Cleveland Center
Sat 12:02:46 PM 40.5939 -79.7819 102° East 489 563 35,000  Level Cleveland Center
Sat 12:03:46 PM 40.5694 -79.6047 100° East 489 563 35,000  Level Cleveland Center
Sat 12:04:46 PM 40.5428 -79.4247 101° East 489 563 35,000  Level Cleveland Center
Sat 12:05:46 PM 40.5117 -79.2478 103° East 494 568 35,000  Level Cleveland Center
Sat 12:06:46 PM 40.4867 -79.0681 100° East 494 568 35,000  Level Cleveland Center
Sat 12:07:46 PM 40.4569 -78.8886 102° East 499 574 35,000 -50 Level Cleveland Center
Sat 12:08:46 PM 40.4289 -78.7039 101° East 506 582 34,900 -700 Descending Cleveland Center
Sat 12:09:46 PM 40.4008 -78.5272 102° East 501 577 33,600 -1,670 Descending Cleveland Center
Sat 12:10:41 PM 40.3797 -78.3708 100° East 492 566 31,700 -2,410 Descending New York Center
Sat 12:11:43 PM 40.3536 -78.2208 103° East 492 566 28,900 -2,557 Descending New York Center
Sat 12:12:43 PM 40.3311 -78.0467 100° East 481 554 26,500 -2,410 Descending New York Center
Sat 12:13:40 PM 40.3078 -77.8483 99° East 486 559 24,200 -1,271 Descending New York Center
Sat 12:14:41 PM 40.2892 -77.6722 98° East 486 559 24,000 -787 Descending New York Center
Sat 12:15:42 PM 40.2681 -77.4958 99° East 486 559 22,600 -1,377 Descending New York Center
Sat 12:16:43 PM 40.2483 -77.3253 99° East 486 559 21,200 -1,361 Descending New York Center
Sat 12:17:41 PM 40.2264 -77.1572 100° East 475 547 19,900 -1,462 Descending New York Center
Sat 12:18:42 PM 40.2078 -76.9953 99° East 460 529 18,300 -1,600 Descending New York Center
Sat 12:19:41 PM 40.1883 -76.8494 100° East 453 521 16,700 -1,563 Descending New York Center
Sat 12:20:41 PM 40.1692 -76.6928 99° East 442 509 15,200 -1,636 Descending New York Center
Sat 12:21:42 PM 40.1500 -76.5308 99° East 423 487 13,400 -1,574 Descending New York Center
Sat 12:22:43 PM 40.1317 -76.3908 100° East 409 471 12,000 -1,412 Descending New York Center
Sat 12:23:41 PM 40.1175 -76.2539 98° East 391 450 10,600 -966 Descending New York Center
Sat 12:24:41 PM 40.1086 -76.1256 95° East 367 422 10,100 -934 Descending New York Center
Sat 12:25:43 PM 40.0989 -76.0219 97° East 332 382 8,700 -1,041 Descending New York Center
Sat 12:26:42 PM 40.0917 -75.8964 94° East 314 361 8,000 -350 Descending New York Center
Sat 12:27:43 PM 40.0819 -75.7844 96° East 314 361 8,000 -50 Level New York Center
Sat 12:28:41 PM 40.0764 -75.6675 94° East 314 361 7,900 -403 Descending New York Center
Sat 12:29:42 PM 40.0706 -75.5583 94° East 314 361 7,200 -689 Descending New York Center
Sat 12:30:43 PM 40.0647 -75.4442 94° East 314 361 6,500 -605 Descending New York Center
Sat 12:31:41 PM 40.0586 -75.3325 94° East 314 361 6,000 -270 Descending New York Center
Sat 12:32:34 PM 40.0500 -75.2333 96° East 304 350 6,000  Level Philadelphia TRACON
Sat 12:33:34 PM 40.0000 -75.1833 143° Southeast 234 269 6,000  Level Philadelphia TRACON
Sat 12:34:34 PM 39.9833 -75.1000 105° East 253 291 6,000  Level Philadelphia TRACON
Sat 12:35:34 PM 40.0000 -75.0167 75° East 249 287 6,000 -450 Level Philadelphia TRACON
Sat 12:36:34 PM 40.0333 -74.9333 62° Northeast 247 284 5,100 -950 Descending Philadelphia TRACON
Sat 12:37:34 PM 39.9833 -74.9000 153° Southeast 164 189 4,100 -800 Descending Philadelphia TRACON
Sat 12:38:34 PM 39.9500 -74.9500 229° Southwest 174 200 3,500 -500 Descending Philadelphia TRACON
Sat 12:39:34 PM 39.9167 -74.9833 217° Southwest 154 177 3,100 -400 Descending Philadelphia TRACON
Sat 12:40:34 PM 39.9167 -75.0333 270° West 148 170 2,700 -400 Descending Philadelphia TRACON

Login

Don't have an account? Register now (free) for customized features, flight alerts, and more!